EDDR/SCN METAR and TAF weather

Enter ICAO airport designator
Station Type Date Time Source
EDDR METAR 2024/07/23 17:20 UTC NOAA

EDDR 231720Z AUTO 27005KT 240V300 9999 SCT017 BKN029 BKN035 20/19 Q1018 NOSIG


Station Type Date Time Source
EDDR Decoded METAR 2024/07/23 17:20 UTC NOAA

Saarbruecken / Ensheim, Germany (EDDR) 49-13N 007-07E 320M
Jul 23, 2024 - 01:20 PM EDT / 2024.07.23 1720 UTC
Wind: from the W (270 degrees) at 6 MPH (5 KT) (direction variable):0
Visibility: greater than 7 mile(s):0
Sky conditions: mostly cloudy
Temperature: 68 F (20 C)
Dew Point: 66 F (19 C)
Relative Humidity: 93%
Pressure (altimeter): 30.06 in. Hg (1018 hPa)
ob: EDDR 231720Z AUTO 27005KT 240V300 9999 SCT017 BKN029 BKN035 20/19 Q1018 NOSIG
cycle: 17

Station Type Date Time Source
EDDR TAF 2024/07/23 18:27 UTC NOAA